createdAt,value
2019-03-29T00:00:48.794Z,21.5
2019-03-29T00:10:52.486Z,21.5
2019-03-29T00:20:55.981Z,21.5
2019-03-29T00:30:59.485Z,21.4
2019-03-29T00:41:02.987Z,21.4
2019-03-29T00:51:06.467Z,21.4
2019-03-29T01:01:10.006Z,21.3
2019-03-29T01:11:14.257Z,21.3
2019-03-29T01:21:18.558Z,21.3
2019-03-29T01:31:22.081Z,21.3
2019-03-29T01:41:26.919Z,21.2
2019-03-29T01:51:30.806Z,21.2
2019-03-29T02:01:34.336Z,21.2
2019-03-29T02:11:37.852Z,21.2
2019-03-29T02:21:41.373Z,21.2
2019-03-29T02:31:46.587Z,21.1
2019-03-29T02:41:50.114Z,21.1
2019-03-29T02:51:53.643Z,21.1
2019-03-29T03:01:57.201Z,21.1
2019-03-29T03:12:00.754Z,21.1
2019-03-29T03:22:04.279Z,21.1
2019-03-29T03:32:07.810Z,21
2019-03-29T03:42:11.423Z,21.1
2019-03-29T03:52:14.952Z,21.1
2019-03-29T04:02:18.482Z,21.2
2019-03-29T04:12:22.097Z,21.2
2019-03-29T04:22:25.616Z,21.2
2019-03-29T04:32:29.259Z,21.2
2019-03-29T04:42:32.782Z,21.2
2019-03-29T04:52:36.307Z,21.2
2019-03-29T05:02:39.840Z,21.3
2019-03-29T05:12:43.315Z,21.2
2019-03-29T05:22:46.817Z,21.3
2019-03-29T05:32:50.331Z,21.3
2019-03-29T05:42:53.856Z,21.3
2019-03-29T05:52:57.334Z,21.3
2019-03-29T06:03:00.938Z,21.3
2019-03-29T06:13:04.450Z,21.3
2019-03-29T06:23:07.977Z,21.4
2019-03-29T06:33:11.429Z,21.4
2019-03-29T06:43:15.012Z,21.4
2019-03-29T06:53:18.514Z,21.4
2019-03-29T07:03:22.024Z,21.4
2019-03-29T07:13:25.526Z,21.4
2019-03-29T07:23:29.046Z,21.4
2019-03-29T07:33:32.513Z,21.4
2019-03-29T07:43:36.042Z,21.4
2019-03-29T07:53:39.552Z,21.5
2019-03-29T08:03:43.045Z,21.5
2019-03-29T08:13:46.574Z,21.5
2019-03-29T08:23:50.104Z,21.6
2019-03-29T08:33:53.582Z,19.7
2019-03-29T08:43:57.094Z,21.9
2019-03-29T08:54:00.616Z,22.5
2019-03-29T09:04:05.801Z,22.6
2019-03-29T09:14:09.645Z,22.7
2019-03-29T09:24:21.512Z,22.8
2019-03-29T09:34:28.808Z,22.8
2019-03-29T09:44:32.549Z,22.9
2019-03-29T09:54:36.068Z,22.9
2019-03-29T10:04:39.583Z,22.8
2019-03-29T10:14:43.094Z,22.7
2019-03-29T10:24:46.580Z,22.7
2019-03-29T10:34:50.041Z,22.8
2019-03-29T10:44:53.577Z,22.8
2019-03-29T10:54:57.107Z,22.8
2019-03-29T11:05:00.643Z,22.8
2019-03-29T11:15:06.564Z,23.1
2019-03-29T11:25:10.533Z,23.2
2019-03-29T11:35:14.035Z,23.1
2019-03-29T11:45:17.583Z,23
2019-03-29T11:55:21.092Z,23
2019-03-29T12:05:24.595Z,23
2019-03-29T12:15:28.108Z,23
2019-03-29T12:25:31.609Z,23.1
2019-03-29T12:35:35.105Z,23.3
2019-03-29T12:45:38.624Z,23.4
2019-03-29T12:55:42.140Z,23.4
2019-03-29T13:05:45.776Z,23.5
2019-03-29T13:15:49.336Z,23.6
2019-03-29T13:25:52.816Z,23.6
2019-03-29T13:35:56.301Z,23.6
2019-03-29T13:45:59.810Z,23.7
2019-03-29T13:56:03.338Z,23.7
2019-03-29T14:06:07.915Z,23.7
2019-03-29T14:16:11.439Z,23.7
2019-03-29T14:26:16.291Z,23.7
2019-03-29T14:36:19.921Z,23.7
2019-03-29T14:46:23.400Z,23.8
2019-03-29T14:56:27.034Z,23.8
2019-03-29T15:06:30.538Z,23.8
2019-03-29T15:16:34.062Z,23.8
2019-03-29T15:26:37.571Z,23.8
2019-03-29T15:36:41.051Z,23.8
2019-03-29T15:46:44.681Z,23.8
2019-03-29T15:56:48.206Z,23.8
2019-03-29T16:06:51.708Z,23.7
2019-03-29T16:16:55.345Z,21.4
2019-03-29T16:26:58.886Z,21
2019-03-29T16:37:02.370Z,21.6
2019-03-29T16:47:05.903Z,21.2
2019-03-29T16:57:09.375Z,21.7
2019-03-29T17:07:12.878Z,21.7
2019-03-29T17:17:16.455Z,21.4
2019-03-29T17:27:19.982Z,20.6
2019-03-29T17:37:23.476Z,21.1
2019-03-29T17:47:26.990Z,21.2
2019-03-29T17:57:30.458Z,20.6
2019-03-29T18:07:33.986Z,19.9
2019-03-29T18:17:37.505Z,20.3
2019-03-29T18:27:40.969Z,19.8
2019-03-29T18:37:44.457Z,21.8
2019-03-29T18:47:47.976Z,22.3
2019-03-29T18:57:51.521Z,22.4
2019-03-29T19:07:55.028Z,22.4
2019-03-29T19:17:58.506Z,22.4
2019-03-29T19:28:02.031Z,22.5
2019-03-29T19:38:05.554Z,22.2
2019-03-29T19:48:09.028Z,22.1
2019-03-29T19:58:12.577Z,22.1
2019-03-29T20:08:16.317Z,22
2019-03-29T20:18:19.813Z,22
2019-03-29T20:28:23.327Z,22
2019-03-29T20:38:26.816Z,21.9
2019-03-29T20:48:30.340Z,21.9
2019-03-29T20:58:34.876Z,21.8
2019-03-29T21:08:38.376Z,21.9
2019-03-29T21:18:41.922Z,21.8
2019-03-29T21:28:45.422Z,21.7
2019-03-29T21:38:48.916Z,21.7
2019-03-29T21:48:52.431Z,21.6
2019-03-29T21:58:55.930Z,21.6
2019-03-29T22:08:59.462Z,21.6
2019-03-29T22:19:02.988Z,21.6
2019-03-29T22:29:06.490Z,21.5
2019-03-29T22:39:10.007Z,21.5
2019-03-29T22:49:13.486Z,21.5
2019-03-29T22:59:17.014Z,21.4
2019-03-29T23:09:20.538Z,21.4
2019-03-29T23:19:24.022Z,21.3
2019-03-29T23:29:27.542Z,21.3
2019-03-29T23:39:31.054Z,21.3
2019-03-29T23:49:34.551Z,21.3
2019-03-29T23:59:38.074Z,21.2
